Time;durP1;ratioP1;P1;durP2;ratioP2;P2;SDS_P1;SDS_P2;PMS_P1;PMS_P2;Temp;Humidity;BMP_temperature;BMP_pressure;BME280_temperature;BME280_humidity;BME280_pressure;Samples;Min_cycle;Max_cycle;Signal;HPM_P1;HPM_P2
2022/11/08 00:01:55;;;;;;;117.60;60.45;;;11.50;99.90;;;;;;6277753;22;20006;-84
2022/11/08 00:04:22;;;;;;;115.60;59.20;;;11.50;99.90;;;;;;6278170;22;20060;-84
2022/11/08 00:15:01;;;;;;;97.97;48.13;;;11.50;99.90;;;;;;6277593;22;20073;-86
2022/11/08 00:17:29;;;;;;;87.57;44.55;;;11.50;99.90;;;;;;6277815;22;19996;-85
2022/11/08 00:19:55;;;;;;;96.03;46.53;;;11.50;99.90;;;;;;6250863;22;20779;-84
2022/11/08 00:22:21;;;;;;;94.10;44.55;;;11.50;99.90;;;;;;6250679;22;20004;-85
2022/11/08 00:24:47;;;;;;;87.80;43.90;;;11.50;99.90;;;;;;6250694;22;20427;-84
2022/11/08 00:27:17;;;;;;;83.88;43.88;;;11.50;99.90;;;;;;6277867;22;20011;-85
2022/11/08 00:29:43;;;;;;;89.72;43.42;;;11.50;99.90;;;;;;6250860;22;20412;-86
2022/11/08 00:32:27;;;;;;;91.45;42.08;;;11.50;99.90;;;;;;6250689;22;19995;-84
2022/11/08 00:34:53;;;;;;;88.10;43.67;;;11.50;99.90;;;;;;6277543;22;19999;-85
2022/11/08 00:37:20;;;;;;;87.43;42.65;;;11.40;99.90;;;;;;6277959;22;20149;-84
2022/11/08 00:39:46;;;;;;;125.20;57.03;;;11.50;99.90;;;;;;6277589;22;20065;-84
2022/11/08 00:42:12;;;;;;;154.60;71.13;;;11.40;99.90;;;;;;6277385;22;19991;-85
2022/11/08 00:44:38;;;;;;;124.28;57.78;;;11.50;99.90;;;;;;6277837;22;19999;-84
2022/11/08 00:47:04;;;;;;;131.23;60.80;;;11.40;99.90;;;;;;6277280;22;20022;-84
2022/11/08 00:49:30;;;;;;;126.70;57.25;;;11.40;99.90;;;;;;6277648;22;20073;-84
2022/11/08 00:51:56;;;;;;;115.72;52.60;;;11.40;99.90;;;;;;6276148;22;19996;-84
2022/11/08 00:54:22;;;;;;;100.13;49.58;;;11.40;99.90;;;;;;6277515;22;20468;-84
2022/11/08 00:56:48;;;;;;;107.03;49.90;;;11.40;99.90;;;;;;6250106;22;19999;-85
2022/11/08 00:59:17;;;;;;;90.57;46.53;;;11.40;99.90;;;;;;6250527;22;19995;-84
2022/11/08 01:01:44;;;;;;;97.55;46.17;;;11.40;99.90;;;;;;6277146;22;19992;-85
2022/11/08 01:04:12;;;;;;;102.38;48.08;;;11.40;99.90;;;;;;6277388;22;20125;-84
2022/11/08 01:06:38;;;;;;;88.28;46.17;;;11.40;99.90;;;;;;6277501;22;20030;-84
2022/11/08 01:09:04;;;;;;;96.00;46.65;;;11.50;99.90;;;;;;6275707;22;20006;-84
2022/11/08 01:11:30;;;;;;;97.45;47.17;;;11.40;99.90;;;;;;6249824;22;20023;-85
2022/11/08 01:13:57;;;;;;;97.13;48.70;;;11.40;99.90;;;;;;6277534;22;20002;-84
2022/11/08 01:16:26;;;;;;;106.22;50.55;;;11.40;99.90;;;;;;6277909;22;19999;-86
2022/11/08 01:18:54;;;;;;;106.00;53.10;;;11.40;99.90;;;;;;6277285;22;19991;-85
2022/11/08 01:21:20;;;;;;;108.43;52.15;;;11.40;99.90;;;;;;6250236;22;20285;-84
2022/11/08 01:23:46;;;;;;;117.10;55.53;;;11.40;99.90;;;;;;6250124;22;20004;-84
2022/11/08 01:26:18;;;;;;;161.10;75.78;;;11.40;99.90;;;;;;6249975;22;19999;-85
2022/11/08 01:28:44;;;;;;;229.55;102.43;;;11.40;99.90;;;;;;6249119;22;20003;-85
2022/11/08 01:31:19;;;;;;;162.18;76.57;;;11.40;99.90;;;;;;6276991;22;20006;-85
2022/11/08 01:33:45;;;;;;;138.45;63.75;;;11.40;99.90;;;;;;6277437;22;20000;-84
2022/11/08 01:36:14;;;;;;;121.25;62.00;;;11.40;99.90;;;;;;6249959;22;20021;-84
2022/11/08 01:38:39;;;;;;;111.85;57.58;;;11.40;99.90;;;;;;6277085;22;20059;-84
2022/11/08 01:41:06;;;;;;;120.80;55.78;;;11.40;99.90;;;;;;6277247;22;20023;-87
2022/11/08 01:43:37;;;;;;;105.13;53.67;;;11.40;99.90;;;;;;6276588;22;20282;-84
2022/11/08 01:46:14;;;;;;;107.57;51.85;;;11.40;99.90;;;;;;6276664;22;20293;-83
2022/11/08 01:49:01;;;;;;;112.47;54.70;;;11.40;99.90;;;;;;6277181;22;20000;-85
2022/11/08 01:51:32;;;;;;;121.60;56.35;;;11.40;99.90;;;;;;6250208;22;19999;-84
2022/11/08 01:54:02;;;;;;;111.07;55.40;;;11.40;99.90;;;;;;6249957;22;20027;-84
2022/11/08 01:56:28;;;;;;;121.68;57.42;;;11.40;99.90;;;;;;6277322;22;19996;-85
2022/11/08 01:58:56;;;;;;;122.80;63.05;;;11.40;99.90;;;;;;6276879;22;20078;-86
2022/11/08 02:01:21;;;;;;;126.90;63.05;;;11.40;99.90;;;;;;6250008;22;20086;-84
2022/11/08 02:03:48;;;;;;;119.03;61.75;;;11.40;99.90;;;;;;6275455;22;20023;-84
2022/11/08 02:06:14;;;;;;;132.30;65.80;;;11.40;99.90;;;;;;6277111;22;20397;-84
2022/11/08 02:08:42;;;;;;;128.75;64.75;;;11.40;99.90;;;;;;6277165;22;20419;-85
2022/11/08 02:11:12;;;;;;;144.40;68.85;;;11.40;99.90;;;;;;6249847;22;19996;-83
2022/11/08 02:13:39;;;;;;;156.68;73.63;;;11.40;99.90;;;;;;6276362;22;19999;-84
2022/11/08 02:16:13;;;;;;;164.95;83.07;;;11.40;99.90;;;;;;6249771;22;20293;-85
2022/11/08 02:18:42;;;;;;;157.23;76.13;;;11.40;99.90;;;;;;6277035;22;19992;-85
2022/11/08 02:21:35;;;;;;;163.68;80.05;;;11.40;99.90;;;;;;6276763;22;19992;-83
2022/11/08 02:24:09;;;;;;;155.07;74.40;;;11.40;99.90;;;;;;6276670;22;19999;-84
2022/11/08 02:26:36;;;;;;;147.60;71.78;;;11.40;99.90;;;;;;6249634;22;20019;-84
2022/11/08 02:29:26;;;;;;;181.35;87.82;;;11.40;99.90;;;;;;6249472;22;20011;-84
2022/11/08 02:31:52;;;;;;;167.90;81.75;;;11.40;99.90;;;;;;6276963;22;19991;-86
2022/11/08 02:34:22;;;;;;;213.65;102.57;;;11.40;99.90;;;;;;6277122;22;20003;-85
2022/11/08 02:36:48;;;;;;;243.13;120.72;;;11.40;99.90;;;;;;6249804;22;20087;-85
2022/11/08 02:39:14;;;;;;;236.85;123.30;;;11.40;99.90;;;;;;6276710;22;20340;-85
2022/11/08 02:41:40;;;;;;;216.82;114.43;;;11.50;99.90;;;;;;6277218;22;20003;-85
2022/11/08 02:44:06;;;;;;;218.68;110.00;;;11.40;99.90;;;;;;6276779;22;20049;-85
2022/11/08 02:46:32;;;;;;;199.70;98.22;;;11.50;99.90;;;;;;6277515;22;20000;-86
2022/11/08 02:48:57;;;;;;;205.65;104.65;;;11.40;99.90;;;;;;6278883;22;19992;-86
2022/11/08 02:51:23;;;;;;;208.38;106.07;;;11.40;99.90;;;;;;6278933;22;20464;-84
2022/11/08 02:53:49;;;;;;;217.50;108.15;;;11.50;99.90;;;;;;6277483;22;20075;-84
2022/11/08 02:56:15;;;;;;;205.63;100.30;;;11.40;99.90;;;;;;6278719;22;20011;-85
2022/11/08 02:58:40;;;;;;;203.60;99.03;;;11.40;99.90;;;;;;6278773;22;20003;-85
2022/11/08 03:01:06;;;;;;;214.40;95.35;;;11.40;99.90;;;;;;6277567;22;19999;-85
2022/11/08 03:03:32;;;;;;;208.77;93.03;;;11.40;99.90;;;;;;6277045;22;20304;-84
2022/11/08 03:05:58;;;;;;;200.75;94.90;;;11.40;99.90;;;;;;6276960;22;20000;-86
2022/11/08 03:08:23;;;;;;;183.63;86.55;;;11.40;99.90;;;;;;6277445;22;20400;-85
2022/11/08 03:10:49;;;;;;;158.32;75.90;;;11.40;99.90;;;;;;6276913;22;20030;-86
2022/11/08 03:13:15;;;;;;;126.18;62.72;;;11.40;99.90;;;;;;6278626;22;20296;-85
2022/11/08 03:15:41;;;;;;;123.57;62.13;;;11.40;99.90;;;;;;6278760;22;20046;-84
2022/11/08 03:18:06;;;;;;;134.38;63.20;;;11.40;99.90;;;;;;6278298;22;19991;-85
2022/11/08 03:20:32;;;;;;;130.88;63.30;;;11.40;99.90;;;;;;6276935;22;20045;-84
2022/11/08 03:23:00;;;;;;;128.63;62.30;;;11.40;99.90;;;;;;6277797;22;20011;-84
2022/11/08 03:25:26;;;;;;;118.82;59.67;;;11.40;99.90;;;;;;6278770;22;20069;-85
2022/11/08 03:27:52;;;;;;;125.70;62.78;;;11.40;99.90;;;;;;6278681;22;20004;-84
2022/11/08 03:30:18;;;;;;;119.63;61.03;;;11.40;99.90;;;;;;6278533;22;19993;-85
2022/11/08 03:32:45;;;;;;;118.30;57.30;;;11.40;99.90;;;;;;6277031;22;20004;-86
2022/11/08 03:35:12;;;;;;;106.28;53.83;;;11.40;99.90;;;;;;6278223;22;19999;-85
2022/11/08 03:37:38;;;;;;;101.63;52.45;;;11.40;99.90;;;;;;6277968;22;20427;-86
2022/11/08 03:40:04;;;;;;;107.80;51.85;;;11.40;99.90;;;;;;6278653;22;19999;-85
2022/11/08 03:42:30;;;;;;;106.00;53.20;;;11.40;99.90;;;;;;6278388;22;19998;-84
2022/11/08 03:44:56;;;;;;;102.47;52.85;;;11.30;99.90;;;;;;6276680;22;20308;-83
2022/11/08 03:47:21;;;;;;;106.82;53.67;;;11.40;99.90;;;;;;6278584;22;20393;-86
2022/11/08 03:49:47;;;;;;;115.15;53.20;;;11.40;99.90;;;;;;6276750;22;20405;-83
2022/11/08 03:52:13;;;;;;;106.45;51.25;;;11.40;99.90;;;;;;6277364;22;19996;-85
2022/11/08 03:54:39;;;;;;;108.40;50.50;;;11.40;99.90;;;;;;6276479;22;20087;-84
2022/11/08 03:57:04;;;;;;;108.88;46.90;;;11.40;99.90;;;;;;6278483;22;20024;-83
2022/11/08 03:59:30;;;;;;;95.70;47.30;;;11.30;99.90;;;;;;6278041;22;20024;-84
2022/11/08 04:01:56;;;;;;;99.97;48.72;;;11.30;99.90;;;;;;6278426;22;19995;-84
2022/11/08 04:04:22;;;;;;;110.10;58.05;;;11.30;99.90;;;;;;6278615;22;20003;-84
2022/11/08 04:06:47;;;;;;;152.95;78.38;;;11.40;99.90;;;;;;6278407;22;20015;-85
2022/11/08 04:09:13;;;;;;;159.10;78.00;;;11.30;99.90;;;;;;6278252;22;19999;-85
2022/11/08 04:17:07;;;;;;;248.70;125.95;;;11.30;99.90;;;;;;6278164;22;20011;-83
2022/11/08 04:22:17;;;;;;;375.27;171.88;;;11.30;99.90;;;;;;6278122;22;20007;-86
2022/11/08 04:24:42;;;;;;;211.93;104.18;;;11.30;99.90;;;;;;6276719;22;20004;-83
2022/11/08 04:27:08;;;;;;;195.00;93.25;;;11.30;99.90;;;;;;6276284;22;20350;-84
2022/11/08 04:29:34;;;;;;;201.88;94.20;;;11.30;99.90;;;;;;6278369;22;20424;-83
2022/11/08 04:32:00;;;;;;;251.07;121.78;;;11.30;99.90;;;;;;6276405;22;20083;-85
2022/11/08 04:34:25;;;;;;;304.33;153.15;;;11.30;99.90;;;;;;6277360;22;20069;-86
2022/11/08 04:36:51;;;;;;;153.40;73.00;;;11.30;99.90;;;;;;6277449;22;20392;-85
2022/11/08 04:39:17;;;;;;;186.32;98.53;;;11.30;99.90;;;;;;6276402;22;20024;-85
2022/11/08 04:41:43;;;;;;;395.20;237.18;;;11.20;99.90;;;;;;6277545;22;19988;-85
2022/11/08 04:44:09;;;;;;;223.02;122.70;;;11.30;99.90;;;;;;6277841;22;19992;-85
2022/11/08 04:46:35;;;;;;;189.00;107.80;;;11.30;99.90;;;;;;6275915;22;19995;-85
2022/11/08 04:49:01;;;;;;;253.25;151.88;;;11.30;99.90;;;;;;6250579;22;20003;-83
2022/11/08 04:51:29;;;;;;;262.55;153.02;;;11.30;99.90;;;;;;6277810;22;20112;-84
2022/11/08 04:53:57;;;;;;;400.23;272.00;;;11.30;99.90;;;;;;6276943;22;20000;-86
2022/11/08 04:56:24;;;;;;;207.80;121.13;;;11.30;99.90;;;;;;6277174;22;20023;-86
2022/11/08 04:58:52;;;;;;;151.13;87.07;;;11.30;99.90;;;;;;6277880;22;19995;-83
2022/11/08 05:01:23;;;;;;;128.30;70.97;;;11.30;99.90;;;;;;6277672;22;19996;-83
2022/11/08 05:03:50;;;;;;;119.70;60.95;;;11.30;99.90;;;;;;6277828;22;20000;-87
2022/11/08 05:06:19;;;;;;;100.63;50.17;;;11.30;99.90;;;;;;6277403;22;20023;-86
2022/11/08 05:08:46;;;;;;;104.80;50.92;;;11.30;99.90;;;;;;6277630;22;20075;-84
2022/11/08 05:11:14;;;;;;;108.28;49.95;;;11.30;99.90;;;;;;6276182;22;20002;-84
2022/11/08 05:13:41;;;;;;;104.03;49.70;;;11.30;99.90;;;;;;6250429;22;20027;-83
2022/11/08 05:16:11;;;;;;;100.07;50.15;;;11.30;99.90;;;;;;6249658;22;20004;-85
2022/11/08 05:18:37;;;;;;;98.45;51.15;;;11.30;99.90;;;;;;6276871;22;20008;-84
2022/11/08 05:23:49;;;;;;;105.70;50.53;;;11.40;99.90;;;;;;6277133;22;20007;-84
2022/11/08 05:26:16;;;;;;;98.43;48.60;;;11.40;99.90;;;;;;6249842;22;20046;-83
2022/11/08 05:28:42;;;;;;;101.30;49.10;;;11.40;99.90;;;;;;6250017;22;20004;-84
2022/11/08 05:31:09;;;;;;;110.95;49.78;;;11.40;99.90;;;;;;6277393;22;20046;-86
2022/11/08 05:33:35;;;;;;;106.97;53.17;;;11.40;99.90;;;;;;6249975;22;20025;-83
2022/11/08 05:36:06;;;;;;;122.45;54.03;;;11.40;99.90;;;;;;6277132;22;20078;-84
2022/11/08 05:38:32;;;;;;;118.03;52.93;;;11.40;99.90;;;;;;6250594;22;20003;-84
2022/11/08 05:41:25;;;;;;;107.43;49.83;;;11.40;99.90;;;;;;6250029;22;20221;-85
2022/11/08 05:43:51;;;;;;;;;;;11.40;99.90;;;;;;6270995;22;19999;-84
2022/11/08 05:46:19;;;;;;;116.82;57.95;;;11.40;99.90;;;;;;6249542;22;19895;-82
2022/11/08 05:48:45;;;;;;;118.75;55.80;;;11.40;99.90;;;;;;6277249;22;19991;-84
2022/11/08 05:51:13;;;;;;;106.05;50.22;;;11.40;99.90;;;;;;6276503;22;20043;-84
2022/11/08 05:53:40;;;;;;;128.27;62.15;;;11.40;99.90;;;;;;6277242;22;20400;-82
2022/11/08 05:56:06;;;;;;;132.85;71.85;;;11.40;99.90;;;;;;6275961;22;20007;-82
2022/11/08 05:58:34;;;;;;;132.98;68.63;;;11.40;99.90;;;;;;6277303;22;20003;-82
2022/11/08 06:01:06;;;;;;;132.45;70.18;;;11.40;99.90;;;;;;6277408;22;19992;-82
2022/11/08 06:03:32;;;;;;;122.22;59.85;;;11.50;99.90;;;;;;6277381;22;19996;-82
2022/11/08 06:06:09;;;;;;;124.22;59.22;;;11.50;99.90;;;;;;6277515;22;20014;-83
2022/11/08 06:08:36;;;;;;;105.97;53.38;;;11.50;99.90;;;;;;6277479;22;20050;-83
2022/11/08 06:11:04;;;;;;;116.30;54.05;;;11.50;99.90;;;;;;6277115;22;19996;-83
2022/11/08 06:13:30;;;;;;;114.75;53.63;;;11.50;99.90;;;;;;6250311;22;19996;-82
2022/11/08 06:16:02;;;;;;;108.07;51.08;;;11.50;99.90;;;;;;6249889;22;20129;-82
2022/11/08 06:18:29;;;;;;;117.00;58.88;;;11.50;99.90;;;;;;6250347;22;20371;-82
2022/11/08 06:20:57;;;;;;;112.38;51.30;;;11.50;99.90;;;;;;6249114;22;20015;-84
2022/11/08 06:23:23;;;;;;;89.20;42.22;;;11.50;99.90;;;;;;6277048;22;20023;-82
2022/11/08 06:25:48;;;;;;;91.65;43.65;;;11.60;99.90;;;;;;6274772;22;20030;-83
2022/11/08 06:28:14;;;;;;;84.82;42.17;;;11.60;99.90;;;;;;6275797;22;20451;-82
2022/11/08 06:30:40;;;;;;;94.82;43.75;;;11.60;99.90;;;;;;6274240;22;20362;-85
2022/11/08 06:33:06;;;;;;;97.25;43.67;;;11.60;99.90;;;;;;6275606;22;19996;-83
2022/11/08 06:35:32;;;;;;;93.30;43.92;;;11.60;99.90;;;;;;6275639;22;20284;-83
2022/11/08 06:37:57;;;;;;;95.18;43.03;;;11.60;99.90;;;;;;6277069;22;19992;-84
2022/11/08 06:40:23;;;;;;;100.00;45.22;;;11.60;99.90;;;;;;6275568;22;19999;-83
2022/11/08 06:42:49;;;;;;;92.25;42.97;;;11.60;99.90;;;;;;6277282;22;20071;-83
2022/11/08 06:45:15;;;;;;;88.28;42.33;;;11.60;99.90;;;;;;6274810;22;19996;-85
2022/11/08 06:47:40;;;;;;;93.18;42.90;;;11.70;99.90;;;;;;6273609;22;20435;-83
2022/11/08 06:50:06;;;;;;;92.38;45.08;;;11.70;99.90;;;;;;6276622;22;20305;-84
2022/11/08 06:52:32;;;;;;;87.82;45.58;;;11.70;99.90;;;;;;6276310;22;19995;-83
2022/11/08 06:54:58;;;;;;;95.72;47.83;;;11.70;99.90;;;;;;6276849;22;19991;-83
2022/11/08 06:57:24;;;;;;;125.22;64.45;;;11.70;99.90;;;;;;6274750;22;20003;-83
2022/11/08 06:59:49;;;;;;;109.03;58.08;;;11.80;99.90;;;;;;6276495;22;20023;-81
2022/11/08 07:02:15;;;;;;;105.85;56.33;;;11.80;99.90;;;;;;6275609;22;20015;-82
2022/11/08 07:04:41;;;;;;;122.78;63.35;;;11.80;99.90;;;;;;6277161;22;19996;-82
2022/11/08 07:07:06;;;;;;;93.10;46.03;;;11.80;99.90;;;;;;6277000;22;20045;-83
2022/11/08 07:09:32;;;;;;;114.72;56.17;;;11.90;99.90;;;;;;6275598;22;19992;-83
2022/11/08 07:11:58;;;;;;;101.50;52.60;;;11.90;99.90;;;;;;6275429;22;20419;-83
2022/11/08 07:14:24;;;;;;;113.00;57.58;;;11.90;99.90;;;;;;6276269;22;19996;-84
2022/11/08 07:16:49;;;;;;;110.43;52.53;;;12.00;99.90;;;;;;6275437;22;20003;-84
2022/11/08 07:19:15;;;;;;;105.13;57.75;;;12.10;99.90;;;;;;6276718;22;20027;-83
2022/11/08 07:21:41;;;;;;;106.45;58.03;;;12.10;99.90;;;;;;6275236;22;19996;-83
2022/11/08 07:24:07;;;;;;;109.65;55.65;;;12.10;99.90;;;;;;6274733;22;20003;-83
2022/11/08 07:26:33;;;;;;;98.03;47.30;;;12.20;99.90;;;;;;6275056;22;20134;-85
2022/11/08 07:28:59;;;;;;;92.57;45.42;;;12.20;99.90;;;;;;6275351;22;20035;-85
2022/11/08 07:31:25;;;;;;;98.55;46.22;;;12.30;99.90;;;;;;6278620;22;19995;-83
2022/11/08 07:33:50;;;;;;;91.30;43.78;;;12.30;99.90;;;;;;6278445;22;20357;-84
2022/11/08 07:36:16;;;;;;;91.80;43.28;;;12.30;99.90;;;;;;6278502;22;20278;-85
2022/11/08 07:38:42;;;;;;;84.07;42.92;;;12.30;99.90;;;;;;6276928;22;20002;-83
2022/11/08 07:41:08;;;;;;;87.90;42.80;;;12.30;99.90;;;;;;6278857;22;20000;-83
2022/11/08 07:43:34;;;;;;;108.00;50.17;;;12.30;99.90;;;;;;6278276;22;19999;-84
2022/11/08 07:46:01;;;;;;;152.20;81.57;;;12.30;99.90;;;;;;6278271;22;20002;-83
2022/11/08 07:48:28;;;;;;;297.67;187.50;;;12.30;99.90;;;;;;6278834;22;19992;-82
2022/11/08 07:50:54;;;;;;;109.15;55.92;;;12.30;99.90;;;;;;6278453;22;20038;-82
2022/11/08 07:53:20;;;;;;;92.82;40.47;;;12.40;99.90;;;;;;6278694;22;20062;-84
2022/11/08 07:55:47;;;;;;;90.55;42.60;;;12.40;99.90;;;;;;6278110;22;20058;-85
2022/11/08 07:58:14;;;;;;;102.28;44.97;;;12.40;99.90;;;;;;6251099;22;20027;-85
2022/11/08 08:00:42;;;;;;;88.47;40.30;;;12.50;99.90;;;;;;6278608;22;19998;-85
2022/11/08 08:03:10;;;;;;;90.65;39.90;;;12.50;99.90;;;;;;6251279;22;19995;-82
2022/11/08 08:05:39;;;;;;;86.22;38.05;;;12.50;99.90;;;;;;6278668;22;19995;-83
2022/11/08 08:08:05;;;;;;;105.97;44.60;;;12.50;99.90;;;;;;6278319;22;20043;-84
2022/11/08 08:10:32;;;;;;;106.32;48.08;;;12.60;99.90;;;;;;6251122;22;19996;-85
2022/11/08 08:12:57;;;;;;;84.30;39.28;;;12.70;99.90;;;;;;6278540;22;19992;-84
2022/11/08 08:15:24;;;;;;;98.00;40.70;;;12.70;99.90;;;;;;6250981;22;20034;-84
2022/11/08 08:17:50;;;;;;;100.20;41.38;;;12.70;99.90;;;;;;6251186;22;20003;-84
2022/11/08 08:20:16;;;;;;;119.55;44.72;;;12.70;99.90;;;;;;6278439;22;19992;-86
2022/11/08 08:22:46;;;;;;;111.95;44.75;;;12.70;99.90;;;;;;6277979;22;19995;-83
2022/11/08 08:25:12;;;;;;;110.38;45.53;;;12.70;99.90;;;;;;6277735;22;19999;-84
2022/11/08 08:27:39;;;;;;;112.50;44.55;;;12.70;99.90;;;;;;6278221;22;20026;-85
2022/11/08 08:30:05;;;;;;;123.93;46.42;;;12.80;99.90;;;;;;6278340;22;20037;-85
2022/11/08 08:32:31;;;;;;;123.82;49.45;;;13.00;99.90;;;;;;6277977;22;19996;-86
2022/11/08 08:34:57;;;;;;;109.65;46.83;;;13.10;99.90;;;;;;6251077;22;20030;-84
2022/11/08 08:37:23;;;;;;;92.78;39.90;;;13.20;99.90;;;;;;6276628;22;20473;-84
2022/11/08 08:39:49;;;;;;;92.00;38.22;;;13.20;99.90;;;;;;6276497;22;20348;-83
2022/11/08 08:42:14;;;;;;;108.60;41.67;;;13.30;99.90;;;;;;6278337;22;20305;-85
2022/11/08 08:44:40;;;;;;;156.57;54.13;;;13.30;99.90;;;;;;6276440;22;20285;-86
2022/11/08 08:47:06;;;;;;;129.65;54.00;;;13.40;99.90;;;;;;6276669;22;20423;-83
2022/11/08 08:49:31;;;;;;;99.07;41.40;;;13.50;99.90;;;;;;6278074;22;19996;-84
2022/11/08 08:51:57;;;;;;;114.78;47.90;;;13.60;99.90;;;;;;6276408;22;20002;-83
2022/11/08 08:54:23;;;;;;;125.53;51.80;;;13.60;99.90;;;;;;6277729;22;20408;-85
2022/11/08 08:56:49;;;;;;;112.43;48.50;;;13.80;99.90;;;;;;6276449;22;19999;-84
2022/11/08 08:59:14;;;;;;;90.78;42.33;;;13.80;99.90;;;;;;6277194;22;19996;-84
2022/11/08 09:01:40;;;;;;;120.80;48.92;;;13.80;99.90;;;;;;6276502;22;20002;-84
2022/11/08 09:04:06;;;;;;;98.85;43.88;;;14.00;99.90;;;;;;6276386;22;19999;-85
2022/11/08 09:06:32;;;;;;;89.20;39.35;;;14.10;99.90;;;;;;6277821;22;20050;-87
2022/11/08 09:08:57;;;;;;;108.28;45.25;;;14.10;99.90;;;;;;6276453;22;20021;-86
2022/11/08 09:11:23;;;;;;;100.30;45.15;;;14.30;99.90;;;;;;6276390;22;20022;-87
2022/11/08 09:13:49;;;;;;;91.72;41.05;;;14.30;99.90;;;;;;6275969;22;20021;-88
2022/11/08 09:16:15;;;;;;;106.28;45.05;;;14.20;99.90;;;;;;6276405;22;20000;-89
2022/11/08 09:18:40;;;;;;;92.10;40.60;;;14.30;99.90;;;;;;6276255;22;20078;-87
2022/11/08 09:21:06;;;;;;;91.65;39.13;;;14.20;99.90;;;;;;6277713;22;20019;-86
2022/11/08 09:23:32;;;;;;;99.95;46.40;;;14.20;99.90;;;;;;6250990;22;20042;-85
2022/11/08 09:26:00;;;;;;;79.90;38.45;;;14.20;99.90;;;;;;6277926;22;19998;-85
2022/11/08 09:28:26;;;;;;;75.75;37.03;;;14.00;99.90;;;;;;6277614;22;20004;-85
2022/11/08 09:30:52;;;;;;;74.13;39.10;;;14.00;99.90;;;;;;6250703;22;20003;-88
2022/11/08 09:33:18;;;;;;;100.38;51.17;;;14.00;99.90;;;;;;6276685;22;20304;-84
2022/11/08 09:35:45;;;;;;;80.75;37.45;;;14.30;99.90;;;;;;6275889;22;20316;-85
2022/11/08 09:38:11;;;;;;;89.35;44.08;;;14.30;99.90;;;;;;6275826;22;20297;-86
2022/11/08 09:40:41;;;;;;;91.68;43.63;;;14.50;99.90;;;;;;6275860;22;20003;-87
2022/11/08 09:43:39;;;;;;;94.70;43.20;;;14.50;99.90;;;;;;6250685;22;20023;-86
2022/11/08 09:46:09;;;;;;;86.60;41.42;;;14.60;99.90;;;;;;6250517;22;20000;-85
2022/11/08 09:48:37;;;;;;;82.82;37.08;;;14.80;99.90;;;;;;6277415;22;20301;-85
2022/11/08 09:51:08;;;;;;;68.82;33.45;;;15.00;99.90;;;;;;6277390;22;19995;-87
2022/11/08 09:53:50;;;;;;;77.57;40.43;;;15.00;99.90;;;;;;6250307;22;19996;-87
2022/11/08 09:56:20;;;;;;;83.57;37.40;;;15.30;99.90;;;;;;6250412;22;20000;-86
2022/11/08 09:59:24;;;;;;;76.50;36.70;;;15.70;99.90;;;;;;6250246;22;20000;-87
2022/11/08 10:01:50;;;;;;;69.78;31.92;;;16.00;99.90;;;;;;6250096;22;20078;-87
2022/11/08 10:04:19;;;;;;;70.32;30.25;;;16.40;99.90;;;;;;6277254;22;20409;-86
2022/11/08 10:07:29;;;;;;;59.63;30.05;;;16.20;99.90;;;;;;6250114;22;20034;-83
2022/11/08 10:10:12;;;;;;;59.42;29.23;;;16.70;99.90;;;;;;6197794;22;20308;-88
2022/11/08 10:12:44;;;;;;;61.78;29.77;;;17.00;99.90;;;;;;6277250;22;20496;-88
2022/11/08 10:15:31;;;;;;;62.38;29.88;;;16.90;99.90;;;;;;6277004;22;20098;-83
2022/11/08 10:18:18;;;;;;;60.90;30.70;;;16.70;99.90;;;;;;6250356;22;20425;-85
2022/11/08 10:21:02;;;;;;;65.22;32.67;;;17.00;99.90;;;;;;6250280;22;20026;-86
2022/11/08 10:23:28;;;;;;;50.88;28.27;;;;;;;;;;6250035;22;20401;-85
2022/11/08 10:26:04;;;;;;;50.72;28.33;;;17.80;99.90;;;;;;6250261;22;20069;-86
2022/11/08 10:28:35;;;;;;;60.33;30.27;;;18.10;99.90;;;;;;6277389;22;20008;-86
2022/11/08 10:31:02;;;;;;;67.20;34.72;;;;;;;;;;6250073;22;20087;-86
2022/11/08 10:33:40;;;;;;;56.47;30.70;;;18.30;99.90;;;;;;6250304;22;20467;-87
2022/11/08 10:36:25;;;;;;;58.13;29.35;;;;;;;;;;6277401;22;20075;-86
2022/11/08 10:39:01;;;;;;;51.65;27.75;;;18.40;99.90;;;;;;6249983;22;20416;-84
2022/11/08 10:42:09;;;;;;;52.00;27.85;;;18.10;99.90;;;;;;6250401;22;20305;-86
2022/11/08 10:44:35;;;;;;;57.67;29.30;;;17.80;99.90;;;;;;6244814;22;20072;-83
2022/11/08 10:47:04;;;;;;;51.60;27.08;;;17.70;99.90;;;;;;6277245;22;19995;-84
2022/11/08 10:49:32;;;;;;;49.92;27.52;;;17.60;99.90;;;;;;6277096;22;19992;-85
2022/11/08 10:52:10;;;;;;;54.15;26.67;;;17.40;99.90;;;;;;6276679;22;20061;-85
2022/11/08 10:54:46;;;;;;;78.45;40.72;;;17.70;99.90;;;;;;6250168;22;20000;-86
2022/11/08 10:57:26;;;;;;;58.63;25.15;;;17.70;99.90;;;;;;6250168;22;20069;-86
2022/11/08 10:59:52;;;;;;;54.03;31.33;;;17.60;99.90;;;;;;6276712;22;20006;-86
2022/11/08 11:02:32;;;;;;;53.05;28.27;;;17.60;99.90;;;;;;6279001;22;19992;-86
2022/11/08 11:05:20;;;;;;;66.00;34.45;;;17.70;99.90;;;;;;6278952;22;20030;-85
2022/11/08 11:07:52;;;;;;;66.38;33.05;;;17.90;99.90;;;;;;6279236;22;19987;-86
2022/11/08 11:10:26;;;;;;;;;;;17.50;99.90;;;;;;6252448;22;19999;-85
2022/11/08 11:13:04;;;;;;;84.57;37.60;;;17.00;99.90;;;;;;6251714;22;19906;-84
2022/11/08 11:15:33;;;;;;;91.18;44.10;;;16.70;99.90;;;;;;6252135;22;20068;-84
2022/11/08 11:17:58;;;;;;;115.65;55.33;;;16.80;99.90;;;;;;6279018;22;20000;-85
2022/11/08 11:20:25;;;;;;;165.57;79.35;;;17.30;99.90;;;;;;6277289;22;19999;-87
2022/11/08 11:22:52;;;;;;;51.97;29.70;;;17.80;99.90;;;;;;6277339;22;20003;-86
2022/11/08 11:25:21;;;;;;;48.58;27.52;;;17.90;99.90;;;;;;6251733;22;20003;-84
2022/11/08 11:27:57;;;;;;;138.68;69.25;;;17.80;99.90;;;;;;6278585;22;20103;-84
2022/11/08 11:30:30;;;;;;;76.75;39.53;;;18.10;99.90;;;;;;6278867;22;20286;-85
2022/11/08 11:33:16;;;;;;;70.85;39.53;;;18.10;99.90;;;;;;6251587;22;20022;-86
2022/11/08 11:35:48;;;;;;;51.88;30.13;;;17.70;99.90;;;;;;6278401;22;20078;-85
2022/11/08 11:38:41;;;;;;;56.53;31.40;;;17.80;99.90;;;;;;6278671;22;20003;-84
2022/11/08 11:41:23;;;;;;;45.63;27.73;;;17.70;99.90;;;;;;6204226;22;20086;-87
2022/11/08 11:44:18;;;;;;;56.72;31.20;;;17.60;99.90;;;;;;6251385;22;20048;-85
2022/11/08 11:46:56;;;;;;;45.75;27.38;;;17.50;99.90;;;;;;6278449;22;19992;-85
2022/11/08 11:49:24;;;;;;;52.17;29.88;;;17.10;99.90;;;;;;6251871;22;20006;-84
2022/11/08 11:51:54;;;;;;;59.08;32.28;;;17.00;99.90;;;;;;6278178;22;20380;-84
2022/11/08 11:54:25;;;;;;;51.78;30.38;;;16.90;99.90;;;;;;6278026;22;20304;-84
2022/11/08 11:57:00;;;;;;;51.63;29.50;;;17.00;99.90;;;;;;6250435;22;20085;-84
2022/11/08 11:59:35;;;;;;;58.90;30.40;;;16.80;99.90;;;;;;6251695;22;20030;-84
2022/11/08 12:02:07;;;;;;;53.20;29.67;;;16.90;99.90;;;;;;6278486;22;19988;-85
2022/11/08 12:05:09;;;;;;;43.22;25.33;;;17.10;99.90;;;;;;6278440;22;20083;-85
2022/11/08 12:07:44;;;;;;;46.95;25.90;;;17.10;99.90;;;;;;6278372;22;20003;-85
2022/11/08 12:10:19;;;;;;;53.90;29.38;;;17.10;99.90;;;;;;6278541;22;20002;-87
2022/11/08 12:12:51;;;;;;;57.03;32.88;;;17.10;99.90;;;;;;6251043;22;20071;-84
2022/11/08 12:15:24;;;;;;;50.85;28.75;;;17.00;99.90;;;;;;6278355;22;20053;-85
2022/11/08 12:17:59;;;;;;;50.42;28.88;;;17.00;99.90;;;;;;6251096;22;20026;-86
2022/11/08 12:20:59;;;;;;;44.60;26.88;;;16.90;99.90;;;;;;6250802;22;20304;-91
2022/11/08 12:23:49;;;;;;;47.50;27.63;;;16.60;99.90;;;;;;6277365;22;20070;-84
2022/11/08 12:26:35;;;;;;;47.67;28.00;;;16.30;99.90;;;;;;6249264;22;20028;-86
2022/11/08 12:29:02;;;;;;;45.75;26.45;;;16.30;99.90;;;;;;6248100;22;20007;-86
2022/11/08 12:31:44;;;;;;;43.33;27.30;;;16.20;99.90;;;;;;6249602;22;20075;-85
2022/11/08 12:34:33;;;;;;;47.55;28.38;;;16.30;99.90;;;;;;6249503;22;20000;-86
2022/11/08 12:37:24;;;;;;;53.92;34.30;;;16.20;99.90;;;;;;6276386;22;20003;-86
2022/11/08 12:39:55;;;;;;;39.72;25.00;;;16.20;99.90;;;;;;6250319;22;20313;-85
2022/11/08 12:42:41;;;;;;;43.43;24.67;;;16.10;99.90;;;;;;6278038;22;20016;-87
2022/11/08 12:45:34;;;;;;;50.20;30.15;;;16.10;99.90;;;;;;6277581;22;20348;-83
2022/11/08 12:48:36;;;;;;;56.60;30.90;;;16.10;99.90;;;;;;6277976;22;20352;-84
2022/11/08 12:51:17;;;;;;;54.50;32.22;;;16.00;99.90;;;;;;6277913;22;19999;-84
2022/11/08 12:53:47;;;;;;;41.70;25.27;;;16.00;99.90;;;;;;6277524;22;20002;-84
2022/11/08 12:56:28;;;;;;;48.17;29.88;;;16.00;99.90;;;;;;6248560;22;20367;-84